sensor_id;sensor_type;location;lat;lon;timestamp;temperature;humidity
67186;HTU21D;54116;53.518;49.398;2023-03-23T00:01:26;-0.96;109.47
67186;HTU21D;54116;53.518;49.398;2023-03-23T00:03:56;-1.02;108.76
67186;HTU21D;54116;53.518;49.398;2023-03-23T00:06:24;-1.08;109.13
67186;HTU21D;54116;53.518;49.398;2023-03-23T00:08:52;-1.09;109.88
67186;HTU21D;54116;53.518;49.398;2023-03-23T00:11:30;-1.09;111.20
67186;HTU21D;54116;53.518;49.398;2023-03-23T00:13:58;-1.01;112.39
67186;HTU21D;54116;53.518;49.398;2023-03-23T00:16:31;-0.97;112.80
67186;HTU21D;54116;53.518;49.398;2023-03-23T00:19:04;-0.95;112.69
67186;HTU21D;54116;53.518;49.398;2023-03-23T00:21:33;-1.01;111.42
67186;HTU21D;54116;53.518;49.398;2023-03-23T00:26:31;-1.01;111.92
67186;HTU21D;54116;53.518;49.398;2023-03-23T00:29:03;-1.02;111.36
67186;HTU21D;54116;53.518;49.398;2023-03-23T00:31:31;-1.10;111.02
67186;HTU21D;54116;53.518;49.398;2023-03-23T00:33:59;-1.10;111.81
67186;HTU21D;54116;53.518;49.398;2023-03-23T00:36:27;-1.05;112.23
67186;HTU21D;54116;53.518;49.398;2023-03-23T00:38:54;-1.04;112.84
67186;HTU21D;54116;53.518;49.398;2023-03-23T00:41:25;-1.11;111.75
67186;HTU21D;54116;53.518;49.398;2023-03-23T00:43:56;-1.21;110.73
67186;HTU21D;54116;53.518;49.398;2023-03-23T00:46:23;-1.26;110.82
67186;HTU21D;54116;53.518;49.398;2023-03-23T00:48:50;-1.28;110.88
67186;HTU21D;54116;53.518;49.398;2023-03-23T00:51:18;-1.30;111.74
67186;HTU21D;54116;53.518;49.398;2023-03-23T00:53:44;-1.28;111.99
67186;HTU21D;54116;53.518;49.398;2023-03-23T00:56:12;-1.32;111.33
67186;HTU21D;54116;53.518;49.398;2023-03-23T00:58:38;-1.38;110.50
67186;HTU21D;54116;53.518;49.398;2023-03-23T01:01:04;-1.40;111.29
67186;HTU21D;54116;53.518;49.398;2023-03-23T01:03:30;-1.40;111.87
67186;HTU21D;54116;53.518;49.398;2023-03-23T01:05:57;-1.40;111.85
67186;HTU21D;54116;53.518;49.398;2023-03-23T01:11:02;-1.55;110.48
67186;HTU21D;54116;53.518;49.398;2023-03-23T01:13:29;-1.60;110.75
67186;HTU21D;54116;53.518;49.398;2023-03-23T01:15:55;-1.60;111.00
67186;HTU21D;54116;53.518;49.398;2023-03-23T01:18:22;-1.63;111.16
67186;HTU21D;54116;53.518;49.398;2023-03-23T01:20:48;-1.60;112.58
67186;HTU21D;54116;53.518;49.398;2023-03-23T01:23:14;-1.59;113.30
67186;HTU21D;54116;53.518;49.398;2023-03-23T01:25:40;-1.64;112.90
67186;HTU21D;54116;53.518;49.398;2023-03-23T01:28:06;-1.64;113.26
67186;HTU21D;54116;53.518;49.398;2023-03-23T01:30:32;-1.72;112.59
67186;HTU21D;54116;53.518;49.398;2023-03-23T01:32:58;-1.75;112.81
67186;HTU21D;54116;53.518;49.398;2023-03-23T01:35:24;-1.73;113.34
67186;HTU21D;54116;53.518;49.398;2023-03-23T01:37:50;-1.71;113.81
67186;HTU21D;54116;53.518;49.398;2023-03-23T01:40:16;-1.70;113.65
67186;HTU21D;54116;53.518;49.398;2023-03-23T01:42:42;-1.69;114.29
67186;HTU21D;54116;53.518;49.398;2023-03-23T01:45:28;-1.67;114.95
67186;HTU21D;54116;53.518;49.398;2023-03-23T01:48:03;-1.63;115.42
67186;HTU21D;54116;53.518;49.398;2023-03-23T01:50:39;-1.61;115.37
67186;HTU21D;54116;53.518;49.398;2023-03-23T01:53:07;-1.61;115.46
67186;HTU21D;54116;53.518;49.398;2023-03-23T01:55:36;-1.62;115.29
67186;HTU21D;54116;53.518;49.398;2023-03-23T01:58:03;-1.62;115.65
67186;HTU21D;54116;53.518;49.398;2023-03-23T02:00:29;-1.60;115.79
67186;HTU21D;54116;53.518;49.398;2023-03-23T02:02:56;-1.60;115.99
67186;HTU21D;54116;53.518;49.398;2023-03-23T02:05:43;-1.63;115.33
67186;HTU21D;54116;53.518;49.398;2023-03-23T02:08:11;-1.73;114.30
67186;HTU21D;54116;53.518;49.398;2023-03-23T02:10:38;-1.83;113.61
67186;HTU21D;54116;53.518;49.398;2023-03-23T02:13:07;-1.84;113.51
67186;HTU21D;54116;53.518;49.398;2023-03-23T02:15:45;-1.82;113.54
67186;HTU21D;54116;53.518;49.398;2023-03-23T02:29:30;-1.41;116.76
67186;HTU21D;54116;53.518;49.398;2023-03-23T02:32:10;-1.26;116.94
67186;HTU21D;54116;53.518;49.398;2023-03-23T02:34:53;-1.19;115.87
67186;HTU21D;54116;53.518;49.398;2023-03-23T02:37:37;-1.06;116.21
67186;HTU21D;54116;53.518;49.398;2023-03-23T02:40:21;-0.96;116.33
67186;HTU21D;54116;53.518;49.398;2023-03-23T02:42:52;-0.90;115.57
67186;HTU21D;54116;53.518;49.398;2023-03-23T02:45:21;-0.79;116.02
67186;HTU21D;54116;53.518;49.398;2023-03-23T02:47:51;-0.73;115.28
67186;HTU21D;54116;53.518;49.398;2023-03-23T02:50:20;-0.67;114.67
67186;HTU21D;54116;53.518;49.398;2023-03-23T02:52:48;-0.59;114.46
67186;HTU21D;54116;53.518;49.398;2023-03-23T02:55:17;-0.54;113.89
67186;HTU21D;54116;53.518;49.398;2023-03-23T02:57:45;-0.47;113.71
67186;HTU21D;54116;53.518;49.398;2023-03-23T03:00:14;-0.44;114.42
67186;HTU21D;54116;53.518;49.398;2023-03-23T03:02:43;-0.32;114.76
67186;HTU21D;54116;53.518;49.398;2023-03-23T03:05:22;-0.21;113.82
67186;HTU21D;54116;53.518;49.398;2023-03-23T03:10:48;-0.08;112.79
67186;HTU21D;54116;53.518;49.398;2023-03-23T03:13:52;0.05;112.58
67186;HTU21D;54116;53.518;49.398;2023-03-23T03:17:22;0.18;112.00
67186;HTU21D;54116;53.518;49.398;2023-03-23T03:19:37;0.32;111.98
67186;HTU21D;54116;53.518;49.398;2023-03-23T03:22:04;0.42;111.63
67186;HTU21D;54116;53.518;49.398;2023-03-23T03:24:32;0.52;111.12
67186;HTU21D;54116;53.518;49.398;2023-03-23T03:27:00;0.59;110.70
67186;HTU21D;54116;53.518;49.398;2023-03-23T03:29:30;0.62;110.36
67186;HTU21D;54116;53.518;49.398;2023-03-23T03:32:00;0.69;109.68
67186;HTU21D;54116;53.518;49.398;2023-03-23T03:34:26;0.75;109.68
67186;HTU21D;54116;53.518;49.398;2023-03-23T03:36:54;0.81;109.40
67186;HTU21D;54116;53.518;49.398;2023-03-23T03:39:25;0.88;109.33
67186;HTU21D;54116;53.518;49.398;2023-03-23T03:41:52;0.97;108.90
67186;HTU21D;54116;53.518;49.398;2023-03-23T03:44:19;1.04;109.35
67186;HTU21D;54116;53.518;49.398;2023-03-23T03:46:46;1.12;109.01
67186;HTU21D;54116;53.518;49.398;2023-03-23T03:49:12;1.20;108.70
67186;HTU21D;54116;53.518;49.398;2023-03-23T03:51:39;1.28;108.99
67186;HTU21D;54116;53.518;49.398;2023-03-23T03:54:06;1.35;109.25
67186;HTU21D;54116;53.518;49.398;2023-03-23T03:56:33;1.43;108.58
67186;HTU21D;54116;53.518;49.398;2023-03-23T03:59:02;1.61;107.78
67186;HTU21D;54116;53.518;49.398;2023-03-23T04:01:28;1.71;107.84
67186;HTU21D;54116;53.518;49.398;2023-03-23T04:03:55;1.90;107.77
67186;HTU21D;54116;53.518;49.398;2023-03-23T04:06:22;1.98;107.44
67186;HTU21D;54116;53.518;49.398;2023-03-23T04:08:48;2.11;106.72
67186;HTU21D;54116;53.518;49.398;2023-03-23T04:11:14;2.27;106.40
67186;HTU21D;54116;53.518;49.398;2023-03-23T04:13:41;2.38;105.97
67186;HTU21D;54116;53.518;49.398;2023-03-23T04:16:08;2.57;105.39
67186;HTU21D;54116;53.518;49.398;2023-03-23T04:18:35;2.69;104.47
67186;HTU21D;54116;53.518;49.398;2023-03-23T04:21:02;2.85;103.93
67186;HTU21D;54116;53.518;49.398;2023-03-23T04:23:31;2.95;103.53
67186;HTU21D;54116;53.518;49.398;2023-03-23T04:25:59;3.02;103.28
67186;HTU21D;54116;53.518;49.398;2023-03-23T04:28:26;3.12;102.61
67186;HTU21D;54116;53.518;49.398;2023-03-23T04:30:54;3.23;102.52
67186;HTU21D;54116;53.518;49.398;2023-03-23T04:33:22;3.34;101.82
67186;HTU21D;54116;53.518;49.398;2023-03-23T04:35:55;3.43;101.25
67186;HTU21D;54116;53.518;49.398;2023-03-23T04:38:23;3.52;100.70
67186;HTU21D;54116;53.518;49.398;2023-03-23T04:40:51;3.55;100.26
67186;HTU21D;54116;53.518;49.398;2023-03-23T04:43:22;3.64;100.00
67186;HTU21D;54116;53.518;49.398;2023-03-23T04:45:55;3.73;99.91
67186;HTU21D;54116;53.518;49.398;2023-03-23T04:48:25;3.85;99.32
67186;HTU21D;54116;53.518;49.398;2023-03-23T04:50:52;3.92;98.71
67186;HTU21D;54116;53.518;49.398;2023-03-23T04:53:19;3.94;98.47
67186;HTU21D;54116;53.518;49.398;2023-03-23T04:55:46;4.01;98.42
67186;HTU21D;54116;53.518;49.398;2023-03-23T04:58:13;4.05;97.72
67186;HTU21D;54116;53.518;49.398;2023-03-23T05:00:40;4.02;98.16
67186;HTU21D;54116;53.518;49.398;2023-03-23T05:03:12;4.09;98.00
67186;HTU21D;54116;53.518;49.398;2023-03-23T05:05:45;4.17;97.54
67186;HTU21D;54116;53.518;49.398;2023-03-23T05:08:13;4.23;96.97
67186;HTU21D;54116;53.518;49.398;2023-03-23T05:10:40;4.34;96.72
67186;HTU21D;54116;53.518;49.398;2023-03-23T05:13:06;4.37;95.60
67186;HTU21D;54116;53.518;49.398;2023-03-23T05:15:32;4.42;95.26
67186;HTU21D;54116;53.518;49.398;2023-03-23T05:17:58;4.45;95.33
67186;HTU21D;54116;53.518;49.398;2023-03-23T05:20:24;4.49;94.79
67186;HTU21D;54116;53.518;49.398;2023-03-23T05:22:50;4.53;94.69
67186;HTU21D;54116;53.518;49.398;2023-03-23T05:25:16;4.61;94.54
67186;HTU21D;54116;53.518;49.398;2023-03-23T05:27:46;4.67;93.95
67186;HTU21D;54116;53.518;49.398;2023-03-23T05:30:19;4.73;93.92
67186;HTU21D;54116;53.518;49.398;2023-03-23T05:32:47;4.71;92.66
67186;HTU21D;54116;53.518;49.398;2023-03-23T05:35:17;4.65;93.12
67186;HTU21D;54116;53.518;49.398;2023-03-23T05:37:43;4.65;93.28
67186;HTU21D;54116;53.518;49.398;2023-03-23T05:40:11;4.72;92.92
67186;HTU21D;54116;53.518;49.398;2023-03-23T05:42:39;4.68;93.01
67186;HTU21D;54116;53.518;49.398;2023-03-23T05:45:09;4.74;93.07
67186;HTU21D;54116;53.518;49.398;2023-03-23T05:47:40;4.81;92.95
67186;HTU21D;54116;53.518;49.398;2023-03-23T05:50:08;4.91;92.17
67186;HTU21D;54116;53.518;49.398;2023-03-23T05:52:35;4.92;91.79
67186;HTU21D;54116;53.518;49.398;2023-03-23T05:55:02;4.89;91.27
67186;HTU21D;54116;53.518;49.398;2023-03-23T05:57:30;4.86;92.37
67186;HTU21D;54116;53.518;49.398;2023-03-23T05:59:56;4.98;92.11
67186;HTU21D;54116;53.518;49.398;2023-03-23T06:02:24;5.09;91.62
67186;HTU21D;54116;53.518;49.398;2023-03-23T06:04:51;5.25;91.34
67186;HTU21D;54116;53.518;49.398;2023-03-23T06:07:25;5.42;90.38
67186;HTU21D;54116;53.518;49.398;2023-03-23T06:09:52;5.62;89.55
67186;HTU21D;54116;53.518;49.398;2023-03-23T06:12:18;5.84;88.02
67186;HTU21D;54116;53.518;49.398;2023-03-23T06:14:48;6.01;87.77
67186;HTU21D;54116;53.518;49.398;2023-03-23T06:17:16;6.09;86.13
67186;HTU21D;54116;53.518;49.398;2023-03-23T06:19:43;6.19;85.87
67186;HTU21D;54116;53.518;49.398;2023-03-23T06:22:12;6.31;85.00
67186;HTU21D;54116;53.518;49.398;2023-03-23T06:24:38;6.53;85.16
67186;HTU21D;54116;53.518;49.398;2023-03-23T06:27:04;6.55;83.81
67186;HTU21D;54116;53.518;49.398;2023-03-23T06:29:30;6.69;84.04
67186;HTU21D;54116;53.518;49.398;2023-03-23T06:31:59;6.97;82.14
67186;HTU21D;54116;53.518;49.398;2023-03-23T06:34:26;7.02;81.38
67186;HTU21D;54116;53.518;49.398;2023-03-23T06:36:52;6.99;79.26
67186;HTU21D;54116;53.518;49.398;2023-03-23T06:39:19;8.07;77.60
67186;HTU21D;54116;53.518;49.398;2023-03-23T06:41:45;8.67;73.46
67186;HTU21D;54116;53.518;49.398;2023-03-23T06:44:11;8.90;73.24
67186;HTU21D;54116;53.518;49.398;2023-03-23T06:46:39;8.64;71.21
67186;HTU21D;54116;53.518;49.398;2023-03-23T06:49:07;8.59;71.61
67186;HTU21D;54116;53.518;49.398;2023-03-23T06:51:34;8.94;71.08
67186;HTU21D;54116;53.518;49.398;2023-03-23T06:54:00;9.01;66.56
67186;HTU21D;54116;53.518;49.398;2023-03-23T06:56:26;8.77;68.38
67186;HTU21D;54116;53.518;49.398;2023-03-23T06:58:52;9.11;67.96
67186;HTU21D;54116;53.518;49.398;2023-03-23T07:01:19;9.22;67.26
67186;HTU21D;54116;53.518;49.398;2023-03-23T07:03:45;9.01;66.88
67186;HTU21D;54116;53.518;49.398;2023-03-23T07:06:11;9.16;65.98
67186;HTU21D;54116;53.518;49.398;2023-03-23T07:08:38;9.30;66.47
67186;HTU21D;54116;53.518;49.398;2023-03-23T07:11:04;9.74;64.20
67186;HTU21D;54116;53.518;49.398;2023-03-23T07:13:31;10.16;62.09
67186;HTU21D;54116;53.518;49.398;2023-03-23T07:15:58;10.45;62.73
67186;HTU21D;54116;53.518;49.398;2023-03-23T07:18:24;10.83;60.29
67186;HTU21D;54116;53.518;49.398;2023-03-23T07:20:51;10.67;60.28
67186;HTU21D;54116;53.518;49.398;2023-03-23T07:23:18;10.60;61.42
67186;HTU21D;54116;53.518;49.398;2023-03-23T07:25:45;10.31;61.25
67186;HTU21D;54116;53.518;49.398;2023-03-23T07:28:15;10.44;60.63
67186;HTU21D;54116;53.518;49.398;2023-03-23T07:30:41;10.45;59.71
67186;HTU21D;54116;53.518;49.398;2023-03-23T07:33:08;10.67;61.68
67186;HTU21D;54116;53.518;49.398;2023-03-23T07:35:35;11.02;59.43
67186;HTU21D;54116;53.518;49.398;2023-03-23T07:38:02;11.17;59.26
67186;HTU21D;54116;53.518;49.398;2023-03-23T07:40:29;11.13;56.77
67186;HTU21D;54116;53.518;49.398;2023-03-23T07:42:59;11.11;57.90
67186;HTU21D;54116;53.518;49.398;2023-03-23T07:45:26;10.99;57.16
67186;HTU21D;54116;53.518;49.398;2023-03-23T07:47:53;11.22;57.26
67186;HTU21D;54116;53.518;49.398;2023-03-23T07:50:20;11.17;56.52
67186;HTU21D;54116;53.518;49.398;2023-03-23T07:52:51;11.09;57.39
67186;HTU21D;54116;53.518;49.398;2023-03-23T07:55:18;11.19;58.29
67186;HTU21D;54116;53.518;49.398;2023-03-23T07:57:46;11.34;57.04
67186;HTU21D;54116;53.518;49.398;2023-03-23T08:00:13;11.25;55.94
67186;HTU21D;54116;53.518;49.398;2023-03-23T08:02:46;11.18;56.96
67186;HTU21D;54116;53.518;49.398;2023-03-23T08:05:15;11.13;56.21
67186;HTU21D;54116;53.518;49.398;2023-03-23T08:07:41;10.65;56.59
67186;HTU21D;54116;53.518;49.398;2023-03-23T08:10:09;10.62;57.04
67186;HTU21D;54116;53.518;49.398;2023-03-23T08:12:40;10.83;57.41
67186;HTU21D;54116;53.518;49.398;2023-03-23T08:15:07;11.00;54.13
67186;HTU21D;54116;53.518;49.398;2023-03-23T08:17:34;10.74;54.62
67186;HTU21D;54116;53.518;49.398;2023-03-23T08:20:02;10.48;57.21
67186;HTU21D;54116;53.518;49.398;2023-03-23T08:22:34;10.43;57.07
67186;HTU21D;54116;53.518;49.398;2023-03-23T08:25:02;10.62;56.93
67186;HTU21D;54116;53.518;49.398;2023-03-23T08:27:29;10.93;57.70
67186;HTU21D;54116;53.518;49.398;2023-03-23T08:29:55;10.90;56.88
67186;HTU21D;54116;53.518;49.398;2023-03-23T08:32:21;10.88;57.86
67186;HTU21D;54116;53.518;49.398;2023-03-23T08:34:48;10.72;58.90
67186;HTU21D;54116;53.518;49.398;2023-03-23T08:37:17;10.51;59.76
67186;HTU21D;54116;53.518;49.398;2023-03-23T08:39:43;10.49;61.07
67186;HTU21D;54116;53.518;49.398;2023-03-23T08:42:10;10.67;60.78
67186;HTU21D;54116;53.518;49.398;2023-03-23T08:44:36;10.83;60.18
67186;HTU21D;54116;53.518;49.398;2023-03-23T08:47:03;10.44;60.83
67186;HTU21D;54116;53.518;49.398;2023-03-23T08:49:31;10.50;61.42
67186;HTU21D;54116;53.518;49.398;2023-03-23T08:52:00;10.14;59.86
67186;HTU21D;54116;53.518;49.398;2023-03-23T08:54:26;9.93;62.02
67186;HTU21D;54116;53.518;49.398;2023-03-23T08:56:53;10.14;60.42
67186;HTU21D;54116;53.518;49.398;2023-03-23T08:59:20;10.45;60.43
67186;HTU21D;54116;53.518;49.398;2023-03-23T09:01:46;10.57;59.26
67186;HTU21D;54116;53.518;49.398;2023-03-23T09:04:13;10.33;58.29
67186;HTU21D;54116;53.518;49.398;2023-03-23T09:06:40;10.38;57.98
67186;HTU21D;54116;53.518;49.398;2023-03-23T09:09:06;10.49;60.49
67186;HTU21D;54116;53.518;49.398;2023-03-23T09:11:33;10.83;57.68
67186;HTU21D;54116;53.518;49.398;2023-03-23T09:14:00;11.00;59.23
67186;HTU21D;54116;53.518;49.398;2023-03-23T09:16:27;11.28;57.88
67186;HTU21D;54116;53.518;49.398;2023-03-23T09:18:54;11.42;57.45
67186;HTU21D;54116;53.518;49.398;2023-03-23T09:21:21;11.34;57.75
67186;HTU21D;54116;53.518;49.398;2023-03-23T09:23:47;11.31;58.08
67186;HTU21D;54116;53.518;49.398;2023-03-23T09:26:17;11.30;57.61
67186;HTU21D;54116;53.518;49.398;2023-03-23T09:28:43;11.01;56.34
67186;HTU21D;54116;53.518;49.398;2023-03-23T09:31:11;10.72;59.73
67186;HTU21D;54116;53.518;49.398;2023-03-23T09:33:38;10.90;58.98
67186;HTU21D;54116;53.518;49.398;2023-03-23T09:36:04;11.00;56.84
67186;HTU21D;54116;53.518;49.398;2023-03-23T09:38:33;10.67;57.59
67186;HTU21D;54116;53.518;49.398;2023-03-23T09:43:59;10.51;58.14
67186;HTU21D;54116;53.518;49.398;2023-03-23T09:47:02;10.36;58.83
67186;HTU21D;54116;53.518;49.398;2023-03-23T09:49:33;10.19;57.96
67186;HTU21D;54116;53.518;49.398;2023-03-23T09:52:04;10.18;58.67
67186;HTU21D;54116;53.518;49.398;2023-03-23T09:54:40;10.23;58.67
67186;HTU21D;54116;53.518;49.398;2023-03-23T09:57:28;10.23;60.19
67186;HTU21D;54116;53.518;49.398;2023-03-23T10:00:29;10.23;59.96
67186;HTU21D;54116;53.518;49.398;2023-03-23T10:03:17;10.12;61.40
67186;HTU21D;54116;53.518;49.398;2023-03-23T10:05:53;10.55;60.56
67186;HTU21D;54116;53.518;49.398;2023-03-23T10:08:29;10.71;58.96
67186;HTU21D;54116;53.518;49.398;2023-03-23T10:11:15;10.88;59.12
67186;HTU21D;54116;53.518;49.398;2023-03-23T10:14:02;11.18;59.30
67186;HTU21D;54116;53.518;49.398;2023-03-23T10:16:38;11.28;58.19
67186;HTU21D;54116;53.518;49.398;2023-03-23T10:19:29;11.16;58.97
67186;HTU21D;54116;53.518;49.398;2023-03-23T10:22:04;11.14;59.30
67186;HTU21D;54116;53.518;49.398;2023-03-23T10:27:25;11.40;58.86
67186;HTU21D;54116;53.518;49.398;2023-03-23T10:29:59;11.28;57.66
67186;HTU21D;54116;53.518;49.398;2023-03-23T10:33:26;10.80;59.73
67186;HTU21D;54116;53.518;49.398;2023-03-23T10:38:37;10.42;60.96
67186;HTU21D;54116;53.518;49.398;2023-03-23T10:41:09;10.51;60.95
67186;HTU21D;54116;53.518;49.398;2023-03-23T10:43:38;10.52;59.62
67186;HTU21D;54116;53.518;49.398;2023-03-23T10:48:58;10.23;61.23
67186;HTU21D;54116;53.518;49.398;2023-03-23T10:51:34;10.38;61.29
67186;HTU21D;54116;53.518;49.398;2023-03-23T10:54:03;10.40;61.81
67186;HTU21D;54116;53.518;49.398;2023-03-23T10:56:42;10.36;61.59
67186;HTU21D;54116;53.518;49.398;2023-03-23T10:59:18;10.42;61.74
67186;HTU21D;54116;53.518;49.398;2023-03-23T11:01:50;10.19;62.98
67186;HTU21D;54116;53.518;49.398;2023-03-23T11:04:17;10.06;63.51
67186;HTU21D;54116;53.518;49.398;2023-03-23T11:06:58;10.04;64.56
67186;HTU21D;54116;53.518;49.398;2023-03-23T11:09:39;9.96;64.76
67186;HTU21D;54116;53.518;49.398;2023-03-23T11:12:17;9.96;65.34
67186;HTU21D;54116;53.518;49.398;2023-03-23T11:14:43;10.11;65.62
67186;HTU21D;54116;53.518;49.398;2023-03-23T11:17:27;10.28;65.14
67186;HTU21D;54116;53.518;49.398;2023-03-23T11:19:54;10.27;65.06
67186;HTU21D;54116;53.518;49.398;2023-03-23T11:22:26;10.19;64.50
67186;HTU21D;54116;53.518;49.398;2023-03-23T11:24:58;10.05;65.53
67186;HTU21D;54116;53.518;49.398;2023-03-23T11:27:27;10.26;65.58
67186;HTU21D;54116;53.518;49.398;2023-03-23T11:29:59;10.40;65.68
67186;HTU21D;54116;53.518;49.398;2023-03-23T11:32:28;10.59;65.49
67186;HTU21D;54116;53.518;49.398;2023-03-23T11:35:00;10.80;64.65
67186;HTU21D;54116;53.518;49.398;2023-03-23T11:37:39;10.82;64.26
67186;HTU21D;54116;53.518;49.398;2023-03-23T11:42:47;10.49;64.86
67186;HTU21D;54116;53.518;49.398;2023-03-23T11:45:31;10.37;66.62
67186;HTU21D;54116;53.518;49.398;2023-03-23T11:50:51;10.63;64.85
67186;HTU21D;54116;53.518;49.398;2023-03-23T11:53:48;10.55;65.38
67186;HTU21D;54116;53.518;49.398;2023-03-23T11:56:33;10.52;64.96
67186;HTU21D;54116;53.518;49.398;2023-03-23T11:59:00;10.55;65.62
67186;HTU21D;54116;53.518;49.398;2023-03-23T12:04:47;10.59;63.94
67186;HTU21D;54116;53.518;49.398;2023-03-23T12:10:18;10.58;64.87
67186;HTU21D;54116;53.518;49.398;2023-03-23T12:13:03;10.66;63.92
67186;HTU21D;54116;53.518;49.398;2023-03-23T12:15:43;10.36;65.02
67186;HTU21D;54116;53.518;49.398;2023-03-23T12:18:17;10.30;65.97
67186;HTU21D;54116;53.518;49.398;2023-03-23T12:23:33;10.40;65.78
67186;HTU21D;54116;53.518;49.398;2023-03-23T12:28:44;10.40;67.65
67186;HTU21D;54116;53.518;49.398;2023-03-23T12:42:28;10.37;67.73
67186;HTU21D;54116;53.518;49.398;2023-03-23T12:47:51;10.30;68.74
67186;HTU21D;54116;53.518;49.398;2023-03-23T12:50:34;10.30;68.60
67186;HTU21D;54116;53.518;49.398;2023-03-23T12:53:26;10.30;68.93
67186;HTU21D;54116;53.518;49.398;2023-03-23T12:58:32;10.05;69.80
67186;HTU21D;54116;53.518;49.398;2023-03-23T13:01:11;9.97;71.07
67186;HTU21D;54116;53.518;49.398;2023-03-23T13:04:01;9.97;70.29
67186;HTU21D;54116;53.518;49.398;2023-03-23T13:06:43;9.99;70.34
67186;HTU21D;54116;53.518;49.398;2023-03-23T13:12:05;9.84;70.58
67186;HTU21D;54116;53.518;49.398;2023-03-23T13:17:35;9.82;70.87
67186;HTU21D;54116;53.518;49.398;2023-03-23T13:23:16;9.85;70.68
67186;HTU21D;54116;53.518;49.398;2023-03-23T13:29:29;9.79;70.90
67186;HTU21D;54116;53.518;49.398;2023-03-23T13:31:31;9.72;71.35
67186;HTU21D;54116;53.518;49.398;2023-03-23T13:34:25;9.65;71.01
67186;HTU21D;54116;53.518;49.398;2023-03-23T13:36:57;9.67;71.66
67186;HTU21D;54116;53.518;49.398;2023-03-23T13:39:30;9.68;71.58
67186;HTU21D;54116;53.518;49.398;2023-03-23T13:57:56;9.50;71.84
67186;HTU21D;54116;53.518;49.398;2023-03-23T14:03:16;9.29;72.52
67186;HTU21D;54116;53.518;49.398;2023-03-23T14:10:59;9.01;73.99
67186;HTU21D;54116;53.518;49.398;2023-03-23T14:16:13;8.85;74.69
67186;HTU21D;54116;53.518;49.398;2023-03-23T14:18:42;8.78;75.21
67186;HTU21D;54116;53.518;49.398;2023-03-23T14:21:26;8.73;75.69
67186;HTU21D;54116;53.518;49.398;2023-03-23T14:23:56;8.64;76.08
67186;HTU21D;54116;53.518;49.398;2023-03-23T14:26:25;8.58;76.41
67186;HTU21D;54116;53.518;49.398;2023-03-23T14:28:52;8.50;76.66
67186;HTU21D;54116;53.518;49.398;2023-03-23T14:31:22;8.44;77.03
67186;HTU21D;54116;53.518;49.398;2023-03-23T14:33:49;8.42;77.25
67186;HTU21D;54116;53.518;49.398;2023-03-23T14:36:21;8.31;77.07
67186;HTU21D;54116;53.518;49.398;2023-03-23T14:38:55;8.22;77.58
67186;HTU21D;54116;53.518;49.398;2023-03-23T14:41:22;8.09;78.19
67186;HTU21D;54116;53.518;49.398;2023-03-23T14:43:48;7.97;78.63
67186;HTU21D;54116;53.518;49.398;2023-03-23T14:46:14;7.86;78.58
67186;HTU21D;54116;53.518;49.398;2023-03-23T14:48:42;7.75;79.44
67186;HTU21D;54116;53.518;49.398;2023-03-23T14:51:17;7.61;79.53
67186;HTU21D;54116;53.518;49.398;2023-03-23T14:53:43;7.49;80.32
67186;HTU21D;54116;53.518;49.398;2023-03-23T14:56:21;7.43;80.57
67186;HTU21D;54116;53.518;49.398;2023-03-23T14:58:50;7.40;81.29
67186;HTU21D;54116;53.518;49.398;2023-03-23T15:01:27;7.39;80.94
67186;HTU21D;54116;53.518;49.398;2023-03-23T15:04:06;7.34;81.19
67186;HTU21D;54116;53.518;49.398;2023-03-23T15:06:35;7.29;81.23
67186;HTU21D;54116;53.518;49.398;2023-03-23T15:09:06;7.26;81.49
67186;HTU21D;54116;53.518;49.398;2023-03-23T15:11:36;7.22;81.93
67186;HTU21D;54116;53.518;49.398;2023-03-23T15:14:10;7.17;82.16
67186;HTU21D;54116;53.518;49.398;2023-03-23T15:16:39;7.11;82.13
67186;HTU21D;54116;53.518;49.398;2023-03-23T15:19:34;7.01;82.68
67186;HTU21D;54116;53.518;49.398;2023-03-23T15:22:26;6.96;83.16
67186;HTU21D;54116;53.518;49.398;2023-03-23T15:25:03;6.87;83.42
67186;HTU21D;54116;53.518;49.398;2023-03-23T15:27:39;6.81;84.15
67186;HTU21D;54116;53.518;49.398;2023-03-23T15:32:44;6.68;84.26
67186;HTU21D;54116;53.518;49.398;2023-03-23T15:35:23;6.64;84.62
67186;HTU21D;54116;53.518;49.398;2023-03-23T15:37:53;6.59;85.09
67186;HTU21D;54116;53.518;49.398;2023-03-23T15:40:24;6.66;85.15
67186;HTU21D;54116;53.518;49.398;2023-03-23T15:43:13;6.65;84.72
67186;HTU21D;54116;53.518;49.398;2023-03-23T15:45:56;6.66;84.51
67186;HTU21D;54116;53.518;49.398;2023-03-23T15:48:26;6.67;84.46
67186;HTU21D;54116;53.518;49.398;2023-03-23T15:50:53;6.67;84.01
67186;HTU21D;54116;53.518;49.398;2023-03-23T15:53:29;6.67;84.20
67186;HTU21D;54116;53.518;49.398;2023-03-23T15:55:57;6.70;83.68
67186;HTU21D;54116;53.518;49.398;2023-03-23T15:58:24;6.67;83.74
67186;HTU21D;54116;53.518;49.398;2023-03-23T16:00:51;6.71;83.41
67186;HTU21D;54116;53.518;49.398;2023-03-23T16:03:29;6.73;83.23
67186;HTU21D;54116;53.518;49.398;2023-03-23T16:05:56;6.75;82.98
67186;HTU21D;54116;53.518;49.398;2023-03-23T16:08:25;6.72;82.83
67186;HTU21D;54116;53.518;49.398;2023-03-23T16:10:51;6.68;83.17
67186;HTU21D;54116;53.518;49.398;2023-03-23T16:13:17;6.66;83.06
67186;HTU21D;54116;53.518;49.398;2023-03-23T16:15:45;6.60;83.61
67186;HTU21D;54116;53.518;49.398;2023-03-23T16:18:18;6.58;83.53
67186;HTU21D;54116;53.518;49.398;2023-03-23T16:20:47;6.58;83.71
67186;HTU21D;54116;53.518;49.398;2023-03-23T16:23:14;6.55;83.73
67186;HTU21D;54116;53.518;49.398;2023-03-23T16:25:40;6.52;83.93
67186;HTU21D;54116;53.518;49.398;2023-03-23T16:28:13;6.43;84.26
67186;HTU21D;54116;53.518;49.398;2023-03-23T16:30:41;6.44;84.97
67186;HTU21D;54116;53.518;49.398;2023-03-23T16:33:07;6.48;84.69
67186;HTU21D;54116;53.518;49.398;2023-03-23T16:35:35;6.51;84.58
67186;HTU21D;54116;53.518;49.398;2023-03-23T16:38:01;6.50;85.32
67186;HTU21D;54116;53.518;49.398;2023-03-23T16:40:27;6.53;85.37
67186;HTU21D;54116;53.518;49.398;2023-03-23T16:42:53;6.49;85.54
67186;HTU21D;54116;53.518;49.398;2023-03-23T16:45:20;6.45;85.75
67186;HTU21D;54116;53.518;49.398;2023-03-23T16:47:46;6.48;86.00
67186;HTU21D;54116;53.518;49.398;2023-03-23T16:50:14;6.48;85.56
67186;HTU21D;54116;53.518;49.398;2023-03-23T16:52:42;6.42;85.96
67186;HTU21D;54116;53.518;49.398;2023-03-23T16:55:10;6.45;86.32
67186;HTU21D;54116;53.518;49.398;2023-03-23T16:57:38;6.46;86.19
67186;HTU21D;54116;53.518;49.398;2023-03-23T17:00:07;6.41;85.92
67186;HTU21D;54116;53.518;49.398;2023-03-23T17:02:34;6.39;85.88
67186;HTU21D;54116;53.518;49.398;2023-03-23T17:05:01;6.36;86.20
67186;HTU21D;54116;53.518;49.398;2023-03-23T17:07:27;6.30;85.84
67186;HTU21D;54116;53.518;49.398;2023-03-23T17:09:53;6.28;86.20
67186;HTU21D;54116;53.518;49.398;2023-03-23T17:12:19;6.26;86.00